ΕΜΥ, Εθνική Μετεωρολογική Υπηρεσία - Δελτία Καιρού, Προγνώσεις

ΑΕΡΟΝΑΥΤΙΛΙΑ

GREEK AIRPORTS CODES

LGKZ 081620Z AUTO 30004KT 220V320 //// -RA ////// 11/02 Q1014 RE//=

EUROPEAN AIRPORTS CODES

LKPR 081600Z 35006KT 9999 FEW043 02/M07 Q1020 NOSIG=